Rechercher aéroport 
image banner adimage banner adimage banner ad
image banner ad

CA91 - Johnson

Situé à Riverside, United States

ICAO - CA91, IATA -

Données fournies par Airmate  

Information générale

Coordonnées: N34°0'29" W117°20'38"
Élévation : 904 feet MSL.
Variation magnétique : 14° East
Voir autres Aéroports à California

Données opérationnelles

Special qualification required
Heure actuelle UTC:
Heure actuelle locale:
Météo à : KRAL - Riverside Muni ( 11 km )
METAR: KRAL 020453Z AUTO 29003KT 10SM CLR 26/07 A3004 RMK AO2 SLP155 T02610072
Voir NOTAMs / SUP AIP / TFR affectant cet aéroport [VIEW]
Fréquences de communication: [VIEW]

Pistes:

Coordonnées de l'aéroport

Adresse: Riverside United States

Vue satellite de CA91